• Join FlightAware (Why Join?)
  • Login
  • US Flag 
05:04PM EDT


 

Airport Tracker/Info


-or-


 

Live Flight TrackerFlight Track Log ✈ VRT51 ✈ 12-Aug-2013 ✈ KBNA - KBWG

Flight Track Log - Related Links

Times and Time Zones

All times are in EDT time to prevent confusion due to time zone crossing. See the VRT51 flight status page for this flight to view local times or setup timezone preferences in your user account.

Time Position Orientation Groundspeed Altitude Reporting Facility
EDT Latitude Longitude Course Direction KTS MPH feet Rate Location/Type
12:18PM 36.1000 -86.6833 219° Southwest 168 193 1,200  Level Nashville TRACON
12:18PM 36.0833 -86.7000 219° Southwest 186 214 2,400 2,280 Climbing Nashville TRACON
12:19PM 36.0833 -86.7833 270° West 237 273 4,400 1,320 Climbing Nashville TRACON
12:20PM 36.1167 -86.8333 310° West 289 333 5,000 240 Climbing Nashville TRACON
12:21PM 36.2000 -86.8000 18° North 303 349 5,000  Level Nashville TRACON
12:22PM 36.2833 -86.7667 18° North 299 344 5,000  Level Nashville TRACON
12:23PM 36.3597 -86.7233 25° Northeast 319 367 5,000  Level Memphis Center
12:24PM 36.4378 -86.6839 22° Northeast 306 352 5,000  Level Memphis Center
12:25PM 36.5219 -86.6411 22° Northeast 306 352 5,000 -240 Level Memphis Center
12:26PM 36.5978 -86.6042 21° North 300 345 4,600 -720 Descending Memphis Center
12:27PM 36.6697 -86.5672 22° Northeast 286 329 3,600 -900 Descending Memphis Center
12:28PM 36.7417 -86.5328 21° North 286 329 2,800 -420 Descending Memphis Center
12:29PM 36.8072 -86.5011 21° North 265 305 2,800  Level Memphis Center
12:30PM 36.8708 -86.4669 23° Northeast 252 290 2,800  Level Memphis Center
12:31PM 36.9344 -86.4378 20° North 247 284 2,800 180 Level Memphis Center
12:32PM 36.9892 -86.3858 37° Northeast 242 278 3,200 180 Climbing Memphis Center
12:33PM 37.0306 -86.3161 53° Northeast 252 290 3,200  Level Memphis Center
12:34PM 37.0911 -86.2533 40° Northeast 275 316 3,200  Level Memphis Center
12:35PM 37.1244 -86.3142 305° West 137 158 3,200 -240 Level Memphis Center
12:36PM 37.0731 -86.3425 204° Southwest 124 143 2,800 -660 Descending Memphis Center
12:37PM 37.0344 -86.3731 212° Southwest 160 184 1,900 -780 Descending Memphis Center
12:38PM 36.9997 -86.3956 207° Southwest 150 173 1,300 -540 Descending Memphis Center
12:39PM 36.9714 -86.4153 209° Southwest 133 153 900 -420 Descending Memphis Center